UNTT 282200Z 20007MPS 9999 BKN013CB M06/M09 Q1024 R21/850145 NOSIG RMK QFE753
QNH:(hPa/inHg/mmHg)1024 / 30.24 / 768
QFE:(hPa/inHg/mmHg)1002 / 29.59 / 751
Temperature-6
Dew Point-9
Visibility> 10000
Weather
Cloud CoverBKN (1300);
Transition Height1000 m./3900 ft.
Transition LevelFL50
SQUAWK